Time;durP1;ratioP1;P1;durP2;ratioP2;P2;SDS_P1;SDS_P2;PMS_P1;PMS_P2;Temp;Humidity;BMP_temperature;BMP_pressure;BME280_temperature;BME280_humidity;BME280_pressure;Samples;Min_cycle;Max_cycle;Signal;HPM_P1;HPM_P2
2022/03/15 00:00:10;;;;;;;;;;;;;;;6.26;40.41;93801.03;2040966;70;20435;-77
2022/03/15 00:02:39;;;;;;;;;;;;;;;6.53;39.05;93801.47;2041327;70;20492;-77
2022/03/15 00:05:06;;;;;;;;;;;;;;;6.38;40.25;93803.50;2041031;70;20084;-73
2022/03/15 00:07:35;;;;;;;;;;;;;;;6.00;41.87;93812.53;2041070;70;20055;-73
2022/03/15 00:10:03;;;;;;;;;;;;;;;6.27;40.94;93812.97;2043013;70;20059;-78
2022/03/15 00:12:29;;;;;;;;;;;;;;;6.35;41.24;93820.09;2041218;70;20521;-76
2022/03/15 00:14:55;;;;;;;;;;;;;;;6.43;39.67;93813.75;2041457;70;20552;-77
2022/03/15 00:17:21;;;;;;;;;;;;;;;6.78;38.10;93817.69;2041444;70;20050;-76
2022/03/15 00:19:49;;;;;;;;;;;;;;;6.38;40.92;93812.63;2041456;70;20141;-77
2022/03/15 00:22:17;;;;;;;;;;;;;;;6.20;40.96;93811.66;2041433;70;20047;-74
2022/03/15 00:24:43;;;;;;;;;;;;;;;6.49;39.15;93809.47;2043107;70;20059;-76
2022/03/15 00:27:10;;;;;;;;;;;;;;;6.85;37.04;93802.97;2040946;70;20111;-74
2022/03/15 00:29:36;;;;;;;;;;;;;;;6.59;38.72;93801.28;2040707;70;20054;-75
2022/03/15 00:32:01;;;;;;;;;;;;;;;6.59;38.56;93807.59;2040944;70;20075;-76
2022/03/15 00:34:27;;;;;;;;;;;;;;;6.27;39.17;93791.34;2040701;70;20563;-76
2022/03/15 00:36:52;;;;;;;;;;;;;;;6.48;39.93;93801.66;2040833;70;20050;-76
2022/03/15 00:39:18;;;;;;;;;;;;;;;6.34;40.57;93790.63;2040323;70;20400;-76
2022/03/15 00:41:43;;;;;;;;;;;;;;;6.46;40.36;93793.81;2043048;70;20405;-75
2022/03/15 00:44:09;;;;;;;;;;;;;;;6.79;39.16;93794.00;2039862;70;20059;-75
2022/03/15 00:46:36;;;;;;;;;;;;;;;6.68;39.04;93797.91;2040787;70;20051;-76
2022/03/15 00:49:02;;;;;;;;;;;;;;;6.68;38.73;93794.38;2040807;70;20047;-77
2022/03/15 00:51:31;;;;;;;;;;;;;;;6.57;39.19;93799.03;2040891;70;20055;-77
2022/03/15 00:54:01;;;;;;;;;;;;;;;6.51;40.44;93798.47;2041006;70;20103;-76
2022/03/15 00:56:26;;;;;;;;;;;;;;;6.62;39.97;93809.31;2040754;70;20503;-75
2022/03/15 00:58:52;;;;;;;;;;;;;;;6.48;39.43;93796.06;2040507;70;20055;-76
2022/03/15 01:01:18;;;;;;;;;;;;;;;6.57;39.73;93803.91;2040753;70;20423;-74
2022/03/15 01:03:44;;;;;;;;;;;;;;;6.77;39.03;93802.22;2040734;70;20055;-74
2022/03/15 01:06:10;;;;;;;;;;;;;;;6.17;41.43;93798.78;2040235;70;20074;-74
2022/03/15 01:08:35;;;;;;;;;;;;;;;5.86;42.51;93803.50;2040662;70;20043;-75
2022/03/15 01:11:06;;;;;;;;;;;;;;;6.20;41.85;93794.88;2040009;70;20143;-74
2022/03/15 01:13:31;;;;;;;;;;;;;;;6.39;41.87;93788.22;2040883;70;20059;-73
2022/03/15 01:15:57;;;;;;;;;;;;;;;6.38;41.55;93786.72;2040989;70;20054;-74
2022/03/15 01:18:23;;;;;;;;;;;;;;;6.39;41.13;93782.63;2040751;70;20507;-73
2022/03/15 01:20:51;;;;;;;;;;;;;;;6.51;40.52;93786.56;2040582;70;20114;-75
2022/03/15 01:23:16;;;;;;;;;;;;;;;6.45;41.10;93777.56;2040720;70;20181;-75
2022/03/15 01:25:42;;;;;;;;;;;;;;;6.67;40.33;93793.63;2040157;70;20143;-74
2022/03/15 01:28:09;;;;;;;;;;;;;;;6.23;40.87;93790.22;2040658;70;20063;-74
2022/03/15 01:30:35;;;;;;;;;;;;;;;6.86;38.47;93788.41;2040731;70;20069;-74
2022/03/15 01:33:01;;;;;;;;;;;;;;;6.68;38.11;93785.97;2040780;70;20048;-75
2022/03/15 01:35:26;;;;;;;;;;;;;;;6.70;39.96;93781.31;2040673;70;20444;-75
2022/03/15 01:37:52;;;;;;;;;;;;;;;6.62;40.95;93786.16;2040686;70;20050;-75
2022/03/15 01:40:17;;;;;;;;;;;;;;;6.51;41.31;93772.56;2040189;70;20174;-75
2022/03/15 01:42:43;;;;;;;;;;;;;;;6.71;39.06;93770.88;2040757;70;20150;-75
2022/03/15 01:45:09;;;;;;;;;;;;;;;6.82;38.28;93765.63;2040546;70;20480;-74
2022/03/15 01:47:36;;;;;;;;;;;;;;;7.02;38.18;93760.41;2040236;70;20534;-76
2022/03/15 01:50:02;;;;;;;;;;;;;;;6.82;38.64;93754.44;2040092;70;20055;-76
2022/03/15 01:52:28;;;;;;;;;;;;;;;7.02;38.63;93752.00;2040707;70;20139;-76
2022/03/15 01:54:55;;;;;;;;;;;;;;;6.55;40.93;93751.31;2040635;70;20051;-75
2022/03/15 01:57:20;;;;;;;;;;;;;;;6.63;40.42;93754.81;2040677;70;20051;-75
2022/03/15 01:59:46;;;;;;;;;;;;;;;6.69;40.94;93753.88;2039774;70;20121;-75
2022/03/15 02:02:12;;;;;;;;;;;;;;;6.95;38.49;93750.69;2040091;70;20055;-77
2022/03/15 02:04:38;;;;;;;;;;;;;;;6.81;40.34;93752.22;2041170;70;20051;-76
2022/03/15 02:07:13;;;;;;;;;;;;;;;6.68;39.94;93752.41;2041208;70;20171;-75
2022/03/15 02:09:40;;;;;;;;;;;;;;;6.71;41.18;93752.03;2041223;70;20046;-76
2022/03/15 02:12:06;;;;;;;;;;;;;;;6.71;40.17;93748.50;2041618;70;20087;-76
2022/03/15 02:14:33;;;;;;;;;;;;;;;6.67;41.57;93739.72;2041541;70;20104;-76
2022/03/15 02:16:58;;;;;;;;;;;;;;;6.75;39.27;93741.22;2041709;70;20051;-76
2022/03/15 02:19:24;;;;;;;;;;;;;;;7.14;38.71;93736.28;2041638;70;20503;-75
2022/03/15 02:21:50;;;;;;;;;;;;;;;6.34;41.82;93728.34;2041809;70;20119;-76
2022/03/15 02:24:16;;;;;;;;;;;;;;;6.67;41.47;93720.88;2041671;70;20060;-76
2022/03/15 02:26:41;;;;;;;;;;;;;;;6.71;40.77;93720.50;2041811;70;20111;-76
2022/03/15 02:29:07;;;;;;;;;;;;;;;6.23;42.77;93726.66;2041637;70;20190;-75
2022/03/15 02:31:32;;;;;;;;;;;;;;;6.51;40.37;93714.56;2041639;70;20473;-75
2022/03/15 02:33:58;;;;;;;;;;;;;;;6.70;41.06;93725.34;2041588;70;20050;-74
2022/03/15 02:36:23;;;;;;;;;;;;;;;6.72;41.40;93725.53;2041738;70;20058;-75
2022/03/15 02:38:49;;;;;;;;;;;;;;;6.74;41.19;93716.59;2041632;70;20056;-76
2022/03/15 02:41:14;;;;;;;;;;;;;;;6.24;43.48;93716.22;2041754;70;20048;-76
2022/03/15 02:43:40;;;;;;;;;;;;;;;6.46;42.41;93709.13;2040779;70;20051;-74
2022/03/15 02:46:07;;;;;;;;;;;;;;;6.72;41.10;93705.94;2041566;70;20047;-75
2022/03/15 02:48:33;;;;;;;;;;;;;;;6.22;43.43;93711.19;2041594;70;20507;-75
2022/03/15 02:50:59;;;;;;;;;;;;;;;6.60;41.37;93713.25;2041580;70;20051;-73
2022/03/15 02:53:25;;;;;;;;;;;;;;;6.64;41.91;93713.59;2041709;70;20066;-73
2022/03/15 02:55:52;;;;;;;;;;;;;;;6.82;41.19;93712.44;2041587;70;20067;-73
2022/03/15 02:58:19;;;;;;;;;;;;;;;6.87;40.84;93711.53;2041563;70;20047;-76
2022/03/15 03:00:44;;;;;;;;;;;;;;;6.95;40.37;93705.16;2040525;70;20051;-76
2022/03/15 03:03:10;;;;;;;;;;;;;;;6.72;40.98;93708.00;2041681;70;20116;-76
2022/03/15 03:05:35;;;;;;;;;;;;;;;6.50;39.87;93707.44;2041598;70;20040;-76
2022/03/15 03:08:04;;;;;;;;;;;;;;;6.65;41.54;93694.78;2041821;70;20411;-76
2022/03/15 03:10:31;;;;;;;;;;;;;;;6.87;40.32;93688.38;2041565;70;20132;-76
2022/03/15 03:12:57;;;;;;;;;;;;;;;6.90;40.69;93689.31;2041689;70;20067;-75
2022/03/15 03:15:22;;;;;;;;;;;;;;;6.99;39.97;93688.72;2041425;70;20055;-75
2022/03/15 03:17:48;;;;;;;;;;;;;;;6.73;40.83;93695.50;2041810;70;20050;-75
2022/03/15 03:20:19;;;;;;;;;;;;;;;6.75;40.47;93698.47;2041531;70;20055;-76
2022/03/15 03:22:45;;;;;;;;;;;;;;;6.86;40.15;93698.09;2043508;70;20480;-76
2022/03/15 03:25:11;;;;;;;;;;;;;;;6.79;39.76;93699.59;2041513;70;20043;-76
2022/03/15 03:27:37;;;;;;;;;;;;;;;6.96;39.09;93707.38;2041561;70;20071;-75
2022/03/15 03:30:02;;;;;;;;;;;;;;;7.00;39.54;93698.59;2043645;70;20044;-75
2022/03/15 03:32:28;;;;;;;;;;;;;;;7.04;38.71;93693.38;2041611;70;20430;-75
2022/03/15 03:34:54;;;;;;;;;;;;;;;6.99;38.89;93706.25;2040962;70;20047;-77
2022/03/15 03:37:21;;;;;;;;;;;;;;;7.01;37.97;93705.69;2041517;70;20071;-77
2022/03/15 03:39:46;;;;;;;;;;;;;;;6.65;40.49;93700.38;2041655;70;20532;-76
2022/03/15 03:42:12;;;;;;;;;;;;;;;6.64;40.93;93702.41;2041549;70;20048;-77
2022/03/15 03:44:41;;;;;;;;;;;;;;;6.70;40.94;93700.16;2041447;70;20051;-76
2022/03/15 03:47:07;;;;;;;;;;;;;;;6.78;41.79;93703.72;2041621;70;20075;-76
2022/03/15 03:49:32;;;;;;;;;;;;;;;6.62;41.63;93705.75;2041599;70;20472;-76
2022/03/15 03:51:58;;;;;;;;;;;;;;;6.59;42.54;93706.13;2041525;70;20107;-76
2022/03/15 03:54:24;;;;;;;;;;;;;;;6.69;43.15;93698.69;2041419;70;20135;-76
2022/03/15 03:56:49;;;;;;;;;;;;;;;6.62;43.77;93702.97;2041601;70;20128;-76
2022/03/15 03:59:15;;;;;;;;;;;;;;;6.72;42.51;93708.00;2041374;70;20086;-76
2022/03/15 04:01:41;;;;;;;;;;;;;;;6.62;42.15;93707.81;2041415;70;20067;-76
2022/03/15 04:04:07;;;;;;;;;;;;;;;6.97;40.21;93703.31;2040751;70;20443;-76
2022/03/15 04:06:33;;;;;;;;;;;;;;;6.94;41.38;93707.22;2041599;70;20051;-76
2022/03/15 04:08:59;;;;;;;;;;;;;;;6.53;41.99;93709.13;2041586;70;20190;-75
2022/03/15 04:11:24;;;;;;;;;;;;;;;6.74;41.71;93702.59;2041458;70;20143;-76
2022/03/15 04:13:50;;;;;;;;;;;;;;;6.85;41.13;93705.00;2041782;70;20044;-76
2022/03/15 04:16:16;;;;;;;;;;;;;;;6.77;41.18;93705.00;2041758;70;20158;-76
2022/03/15 04:18:41;;;;;;;;;;;;;;;6.60;42.03;93705.59;2041424;70;20166;-74
2022/03/15 04:21:07;;;;;;;;;;;;;;;6.52;42.69;93709.69;2041454;70;20118;-75
2022/03/15 04:23:32;;;;;;;;;;;;;;;6.75;41.16;93716.03;2041517;70;20411;-73
2022/03/15 04:25:58;;;;;;;;;;;;;;;6.78;41.38;93709.31;2040871;70;20040;-74
2022/03/15 04:28:23;;;;;;;;;;;;;;;6.76;42.01;93705.56;2043592;70;20142;-74
2022/03/15 04:30:48;;;;;;;;;;;;;;;6.80;41.84;93708.75;2041292;70;20123;-76
2022/03/15 04:33:14;;;;;;;;;;;;;;;6.79;41.36;93710.06;2041363;70;20054;-76
2022/03/15 04:35:40;;;;;;;;;;;;;;;6.91;41.26;93702.72;2041431;70;20049;-77
2022/03/15 04:38:05;;;;;;;;;;;;;;;6.86;40.96;93696.03;2041564;70;20048;-77
2022/03/15 04:40:31;;;;;;;;;;;;;;;6.56;42.73;93693.28;2041502;70;20396;-76
2022/03/15 04:42:58;;;;;;;;;;;;;;;6.71;42.40;93698.13;2041511;70;20531;-77
2022/03/15 04:45:24;;;;;;;;;;;;;;;6.51;42.74;93692.19;2041399;70;20075;-75
2022/03/15 04:47:49;;;;;;;;;;;;;;;6.48;43.75;93698.88;2041004;70;20058;-77
2022/03/15 04:50:15;;;;;;;;;;;;;;;6.71;43.26;93698.13;2041474;70;20060;-76
2022/03/15 04:52:40;;;;;;;;;;;;;;;6.68;43.00;93694.38;2041502;70;20070;-76
2022/03/15 04:55:06;;;;;;;;;;;;;;;6.40;44.00;93698.13;2041467;70;20131;-77
2022/03/15 04:57:32;;;;;;;;;;;;;;;6.66;41.66;93685.06;2041495;70;20055;-76
2022/03/15 04:59:57;;;;;;;;;;;;;;;6.44;44.62;93690.13;2043395;70;20083;-77
2022/03/15 05:02:23;;;;;;;;;;;;;;;6.65;43.13;93694.78;2041483;70;20119;-77
2022/03/15 05:04:49;;;;;;;;;;;;;;;6.78;42.06;93692.50;2041330;70;20047;-77
2022/03/15 05:07:15;;;;;;;;;;;;;;;6.68;42.59;93683.19;2041387;70;20047;-77
2022/03/15 05:12:27;;;;;;;;;;;;;;;6.52;42.73;93692.91;2041478;70;20061;-77
2022/03/15 05:14:52;;;;;;;;;;;;;;;6.50;44.25;93690.66;2041176;70;20056;-77
2022/03/15 05:17:19;;;;;;;;;;;;;;;6.81;40.18;93679.44;2041317;70;20435;-75
2022/03/15 05:19:44;;;;;;;;;;;;;;;6.90;41.92;93681.66;2041337;70;20095;-76
2022/03/15 05:22:10;;;;;;;;;;;;;;;6.76;42.72;93688.78;2041430;70;20047;-75
2022/03/15 05:24:35;;;;;;;;;;;;;;;6.88;41.14;93685.03;2041300;70;20090;-75
2022/03/15 05:27:01;;;;;;;;;;;;;;;6.78;42.16;93692.50;2041312;70;20044;-76
2022/03/15 05:29:26;;;;;;;;;;;;;;;6.42;43.68;93684.34;2041398;70;20247;-75
2022/03/15 05:31:51;;;;;;;;;;;;;;;6.65;43.46;93689.19;2041274;70;20054;-74
2022/03/15 05:34:17;;;;;;;;;;;;;;;6.65;43.40;93698.31;2040720;70;20459;-76
2022/03/15 05:36:43;;;;;;;;;;;;;;;6.80;41.99;93703.13;2041260;70;20055;-76
2022/03/15 05:39:09;;;;;;;;;;;;;;;6.63;44.95;93696.06;2041477;70;20043;-76
2022/03/15 05:41:35;;;;;;;;;;;;;;;6.72;44.38;93694.00;2041258;70;20052;-76
2022/03/15 05:44:00;;;;;;;;;;;;;;;6.74;44.10;93692.16;2041250;70;20079;-76
2022/03/15 05:46:26;;;;;;;;;;;;;;;6.65;44.05;93689.19;2041498;70;20058;-77
2022/03/15 05:48:52;;;;;;;;;;;;;;;6.65;42.27;93689.19;2041733;70;20484;-73
2022/03/15 05:51:18;;;;;;;;;;;;;;;6.82;42.21;93692.84;2041829;70;20416;-73
2022/03/15 05:53:44;;;;;;;;;;;;;;;6.76;43.85;93685.97;2041729;70;20050;-76
2022/03/15 05:56:09;;;;;;;;;;;;;;;6.83;43.67;93682.44;2041755;70;20060;-74
2022/03/15 05:58:35;;;;;;;;;;;;;;;6.91;43.62;93682.41;2041814;70;20050;-75
2022/03/15 06:01:01;;;;;;;;;;;;;;;6.75;45.52;93690.84;2041588;70;20469;-77
2022/03/15 06:03:26;;;;;;;;;;;;;;;6.93;44.07;93685.38;2042192;70;20049;-76
2022/03/15 06:05:55;;;;;;;;;;;;;;;6.87;42.18;93677.94;2041742;70;20423;-73
2022/03/15 06:08:20;;;;;;;;;;;;;;;7.05;42.13;93672.47;2041710;70;20082;-76
2022/03/15 06:10:46;;;;;;;;;;;;;;;7.26;41.77;93675.00;2040392;70;20063;-76
2022/03/15 06:13:11;;;;;;;;;;;;;;;6.77;43.73;93688.19;2040931;70;20052;-76
2022/03/15 06:15:36;;;;;;;;;;;;;;;6.43;45.10;93691.44;2041368;70;20099;-76
2022/03/15 06:18:03;;;;;;;;;;;;;;;6.88;43.33;93687.81;2041618;70;20070;-76
2022/03/15 06:20:28;;;;;;;;;;;;;;;7.02;44.17;93688.34;2041759;70;20044;-74
2022/03/15 06:22:56;;;;;;;;;;;;;;;7.12;43.15;93692.03;2041623;70;20058;-74
2022/03/15 06:25:25;;;;;;;;;;;;;;;7.02;43.53;93691.16;2041684;70;20047;-74
2022/03/15 06:27:50;;;;;;;;;;;;;;;7.09;44.44;93689.63;2041813;70;20050;-74
2022/03/15 06:30:16;;;;;;;;;;;;;;;7.22;43.43;93689.41;2041491;70;20054;-74
2022/03/15 06:32:42;;;;;;;;;;;;;;;7.13;43.83;93676.00;2041109;70;20395;-74
2022/03/15 06:35:08;;;;;;;;;;;;;;;7.22;43.64;93671.84;2041589;70;20170;-74
2022/03/15 06:37:44;;;;;;;;;;;;;;;7.34;42.78;93686.94;2041630;70;20060;-74
2022/03/15 06:40:11;;;;;;;;;;;;;;;7.27;43.35;93685.66;2041635;70;20044;-74
2022/03/15 06:42:38;;;;;;;;;;;;;;;7.48;43.52;93679.78;2041663;70;20196;-74
2022/03/15 06:45:04;;;;;;;;;;;;;;;7.61;44.19;93687.19;2041612;70;20136;-74
2022/03/15 06:47:29;;;;;;;;;;;;;;;7.80;42.72;93681.13;2041621;70;20151;-74
2022/03/15 06:49:55;;;;;;;;;;;;;;;7.68;41.54;93683.59;2041740;70;20087;-74
2022/03/15 06:52:20;;;;;;;;;;;;;;;7.76;40.47;93678.69;2041577;70;20059;-74
2022/03/15 06:54:46;;;;;;;;;;;;;;;7.53;42.66;93684.41;2041496;70;20039;-74
2022/03/15 06:57:14;;;;;;;;;;;;;;;8.07;40.71;93682.06;2041371;70;20056;-74
2022/03/15 06:59:39;;;;;;;;;;;;;;;8.14;42.26;93681.25;2040969;70;20043;-73
2022/03/15 07:02:05;;;;;;;;;;;;;;;8.29;41.01;93683.22;2041470;70;20083;-73
2022/03/15 07:04:31;;;;;;;;;;;;;;;8.41;39.14;93672.28;2041320;70;20103;-73
2022/03/15 07:06:57;;;;;;;;;;;;;;;8.47;40.96;93681.22;2041618;70;20438;-74
2022/03/15 07:09:22;;;;;;;;;;;;;;;8.50;40.67;93676.53;2041479;70;20044;-74
2022/03/15 07:11:47;;;;;;;;;;;;;;;8.58;37.60;93677.22;2041172;70;20522;-75
2022/03/15 07:14:13;;;;;;;;;;;;;;;8.76;39.88;93673.13;2041111;70;20473;-75
2022/03/15 07:16:38;;;;;;;;;;;;;;;8.85;38.55;93671.72;2041298;70;20071;-75
2022/03/15 07:19:05;;;;;;;;;;;;;;;8.89;40.12;93681.22;2041471;70;20047;-75
2022/03/15 07:21:34;;;;;;;;;;;;;;;8.97;39.69;93686.75;2040896;70;20047;-74
2022/03/15 07:23:59;;;;;;;;;;;;;;;8.75;40.50;93685.66;2041002;70;20048;-73
2022/03/15 07:26:25;;;;;;;;;;;;;;;7.91;44.59;93697.47;2041407;70;20063;-74
2022/03/15 07:28:50;;;;;;;;;;;;;;;8.59;41.24;93689.91;2040762;70;20051;-73
2022/03/15 07:31:17;;;;;;;;;;;;;;;8.97;41.70;93688.81;2041471;70;20051;-73
2022/03/15 07:33:42;;;;;;;;;;;;;;;9.02;41.57;93688.56;2041504;70;20416;-73
2022/03/15 07:36:08;;;;;;;;;;;;;;;9.23;39.81;93688.16;2041607;70;20048;-74
2022/03/15 07:38:34;;;;;;;;;;;;;;;9.32;39.94;93690.31;2040988;70;20055;-73
2022/03/15 07:41:00;;;;;;;;;;;;;;;9.35;39.79;93694.03;2041483;70;20062;-73
2022/03/15 07:43:26;;;;;;;;;;;;;;;9.49;38.98;93688.81;2041589;70;20557;-76
2022/03/15 07:45:52;;;;;;;;;;;;;;;9.22;39.71;93689.50;2041379;70;20134;-74
2022/03/15 07:48:18;;;;;;;;;;;;;;;9.32;39.28;93686.75;2041571;70;20515;-73
2022/03/15 07:50:43;;;;;;;;;;;;;;;9.41;37.83;93684.03;2041452;70;20075;-74
2022/03/15 07:53:09;;;;;;;;;;;;;;;9.02;40.30;93687.81;2041550;70;20055;-73
2022/03/15 07:55:34;;;;;;;;;;;;;;;9.30;38.68;93684.53;2041464;70;20207;-73
2022/03/15 07:58:00;;;;;;;;;;;;;;;9.38;39.35;93687.25;2041591;70;20058;-73
2022/03/15 08:00:26;;;;;;;;;;;;;;;9.51;39.13;93678.47;2041221;70;20071;-75
2022/03/15 08:02:52;;;;;;;;;;;;;;;9.55;38.63;93673.19;2041424;70;20204;-75
2022/03/15 08:05:18;;;;;;;;;;;;;;;9.51;39.85;93678.47;2041491;70;20067;-76
2022/03/15 08:07:44;;;;;;;;;;;;;;;9.77;39.40;93690.34;2041466;70;20110;-76
2022/03/15 08:10:10;;;;;;;;;;;;;;;9.73;37.93;93684.41;2041383;70;20056;-75
2022/03/15 08:12:36;;;;;;;;;;;;;;;9.83;38.04;93680.31;2041532;70;20087;-75
2022/03/15 08:15:02;;;;;;;;;;;;;;;9.96;38.98;93689.72;2041282;70;20071;-73
2022/03/15 08:17:28;;;;;;;;;;;;;;;9.49;39.61;93691.63;2041386;70;20583;-74
2022/03/15 08:19:53;;;;;;;;;;;;;;;9.60;40.94;93686.22;2041632;70;20039;-74
2022/03/15 08:22:19;;;;;;;;;;;;;;;9.98;38.37;93696.22;2037834;70;20051;-74
2022/03/15 08:24:46;;;;;;;;;;;;;;;10.12;37.66;93690.97;2041430;70;20090;-73
2022/03/15 08:27:12;;;;;;;;;;;;;;;10.16;38.67;93685.66;2041496;70;20083;-73
2022/03/15 08:29:37;;;;;;;;;;;;;;;10.23;37.24;93675.63;2041298;70;20067;-73
2022/03/15 08:32:03;;;;;;;;;;;;;;;10.33;38.32;93668.75;2041606;70;20035;-73
2022/03/15 08:34:28;;;;;;;;;;;;;;;10.15;35.57;93664.47;2041367;70;20047;-73
2022/03/15 08:36:53;;;;;;;;;;;;;;;10.02;35.05;93662.78;2041403;70;20048;-73
2022/03/15 08:39:22;;;;;;;;;;;;;;;10.05;35.83;93658.06;2043583;70;20055;-72
2022/03/15 08:41:51;;;;;;;;;;;;;;;10.03;38.02;93655.09;2041396;70;20503;-73
2022/03/15 08:44:20;;;;;;;;;;;;;;;10.12;37.86;93660.03;2041232;70;20047;-73
2022/03/15 08:46:47;;;;;;;;;;;;;;;10.09;37.44;93664.75;2041832;70;20055;-73
2022/03/15 08:49:14;;;;;;;;;;;;;;;10.51;36.91;93666.59;2041356;70;20099;-73
2022/03/15 08:51:40;;;;;;;;;;;;;;;10.69;36.71;93661.59;2041357;70;20090;-73
2022/03/15 08:54:05;;;;;;;;;;;;;;;10.75;35.73;93672.56;2041302;70;20462;-73
2022/03/15 08:56:32;;;;;;;;;;;;;;;10.81;35.36;93670.97;2041411;70;20134;-73
2022/03/15 08:58:57;;;;;;;;;;;;;;;10.56;34.68;93665.56;2041186;70;20131;-73
2022/03/15 09:01:23;;;;;;;;;;;;;;;10.54;33.51;93670.31;2041448;70;20480;-72
2022/03/15 09:03:48;;;;;;;;;;;;;;;10.57;34.99;93664.22;2041396;70;20050;-72
2022/03/15 09:06:14;;;;;;;;;;;;;;;10.51;35.88;93666.59;2041363;70;20048;-73
2022/03/15 09:08:39;;;;;;;;;;;;;;;10.78;35.29;93669.31;2041344;70;20056;-73
2022/03/15 09:11:05;;;;;;;;;;;;;;;10.99;35.92;93657.47;2041389;70;20054;-73
2022/03/15 09:13:32;;;;;;;;;;;;;;;11.02;34.51;93661.22;2041379;70;20059;-72
2022/03/15 09:15:58;;;;;;;;;;;;;;;11.08;34.65;93653.94;2041158;70;20063;-74
2022/03/15 09:18:26;;;;;;;;;;;;;;;10.76;34.89;93659.97;2041381;70;20436;-73
2022/03/15 09:20:52;;;;;;;;;;;;;;;11.05;34.52;93648.75;2041156;70;20050;-73
2022/03/15 09:23:18;;;;;;;;;;;;;;;11.01;34.55;93645.63;2043470;70;20427;-74
2022/03/15 09:25:43;;;;;;;;;;;;;;;10.51;36.76;93654.56;2041448;70;20051;-74
2022/03/15 09:28:10;;;;;;;;;;;;;;;10.74;35.91;93642.94;2043472;70;20110;-74
2022/03/15 09:30:37;;;;;;;;;;;;;;;11.10;34.53;93639.28;2040650;70;20048;-73
2022/03/15 09:33:02;;;;;;;;;;;;;;;11.26;34.42;93636.88;2041286;70;20107;-73
2022/03/15 09:35:28;;;;;;;;;;;;;;;11.36;34.40;93638.38;2041269;70;20162;-73
2022/03/15 09:37:54;;;;;;;;;;;;;;;11.49;34.33;93633.59;2041333;70;20049;-73
2022/03/15 09:40:22;;;;;;;;;;;;;;;11.57;34.31;93640.59;2041297;70;20087;-73
2022/03/15 09:42:48;;;;;;;;;;;;;;;11.61;34.20;93631.69;2041242;70;20068;-72
2022/03/15 09:45:14;;;;;;;;;;;;;;;11.66;35.23;93622.16;2041127;70;20123;-72
2022/03/15 09:47:40;;;;;;;;;;;;;;;11.67;33.79;93626.47;2041232;70;20076;-71
2022/03/15 09:50:06;;;;;;;;;;;;;;;11.65;33.71;93632.72;2041191;70;20047;-72
2022/03/15 09:52:34;;;;;;;;;;;;;;;11.67;33.67;93623.63;2040697;70;20504;-73
2022/03/15 09:55:00;;;;;;;;;;;;;;;11.75;34.50;93624.22;2041179;70;20058;-72
2022/03/15 09:57:27;;;;;;;;;;;;;;;11.71;34.24;93619.03;2041211;70;20512;-73
2022/03/15 09:59:57;;;;;;;;;;;;;;;11.64;33.76;93619.94;2040565;70;20055;-72
2022/03/15 10:02:23;;;;;;;;;;;;;;;11.39;34.06;93625.16;2041239;70;20083;-73
2022/03/15 10:04:49;;;;;;;;;;;;;;;11.24;35.13;93622.66;2041299;70;20047;-73
2022/03/15 10:07:15;;;;;;;;;;;;;;;11.36;34.33;93615.84;2041244;70;20055;-72
2022/03/15 10:09:40;;;;;;;;;;;;;;;11.39;35.08;93613.88;2041200;70;20087;-72
2022/03/15 10:12:08;;;;;;;;;;;;;;;11.39;35.12;93617.44;2041164;70;20044;-72
2022/03/15 10:14:41;;;;;;;;;;;;;;;11.07;35.78;93613.00;2041139;70;20044;-72
2022/03/15 10:17:06;;;;;;;;;;;;;;;11.27;35.48;93613.75;2041154;70;20435;-74
2022/03/15 10:19:32;;;;;;;;;;;;;;;11.35;35.03;93610.78;2041288;70;20048;-73
2022/03/15 10:21:58;;;;;;;;;;;;;;;11.26;34.85;93626.34;2041208;70;20526;-73
2022/03/15 10:24:25;;;;;;;;;;;;;;;11.25;36.80;93607.97;2041186;70;20051;-73
2022/03/15 10:26:52;;;;;;;;;;;;;;;11.37;35.61;93602.47;2041124;70;20048;-74
2022/03/15 10:29:17;;;;;;;;;;;;;;;11.60;35.27;93599.91;2039875;70;20067;-74
2022/03/15 10:31:44;;;;;;;;;;;;;;;11.59;35.68;93594.84;2037353;70;20075;-74
2022/03/15 10:34:10;;;;;;;;;;;;;;;11.61;35.23;93595.00;2037872;70;20052;-73
2022/03/15 10:36:40;;;;;;;;;;;;;;;11.70;35.33;93589.34;2037807;70;20050;-73
2022/03/15 10:39:06;;;;;;;;;;;;;;;11.69;35.09;93589.94;2040159;70;20064;-74
2022/03/15 10:41:41;;;;;;;;;;;;;;;11.76;34.39;93589.03;2038122;70;20504;-74
2022/03/15 10:44:14;;;;;;;;;;;;;;;11.77;34.86;93592.59;2037626;70;20048;-73
2022/03/15 10:46:39;;;;;;;;;;;;;;;11.81;34.21;93587.97;2037933;70;20044;-74
2022/03/15 10:49:05;;;;;;;;;;;;;;;11.84;34.76;93580.44;2037827;70;20067;-73
2022/03/15 10:51:30;;;;;;;;;;;;;;;11.82;35.18;93583.06;2037513;70;20075;-73
2022/03/15 10:54:03;;;;;;;;;;;;;;;11.66;35.85;93579.84;2037687;70;20541;-74
2022/03/15 10:56:29;;;;;;;;;;;;;;;11.44;35.71;93579.75;2037703;70;20059;-73
2022/03/15 10:58:59;;;;;;;;;;;;;;;11.68;35.03;93577.94;2037223;70;20429;-73
2022/03/15 11:01:26;;;;;;;;;;;;;;;11.92;34.43;93583.81;2037437;70;20063;-72
2022/03/15 11:03:54;;;;;;;;;;;;;;;12.03;34.11;93579.63;2037696;70;20048;-72
2022/03/15 11:06:30;;;;;;;;;;;;;;;11.95;34.76;93586.16;2037827;70;20151;-72
2022/03/15 11:08:56;;;;;;;;;;;;;;;11.86;35.16;93583.38;2037892;70;20093;-73
2022/03/15 11:11:25;;;;;;;;;;;;;;;11.93;34.93;93576.84;2037996;70;20056;-73
2022/03/15 11:13:57;;;;;;;;;;;;;;;12.04;34.54;93575.44;2037798;70;20500;-73
2022/03/15 11:16:23;;;;;;;;;;;;;;;12.10;34.73;93570.25;2037787;70;20155;-74
2022/03/15 11:18:49;;;;;;;;;;;;;;;12.16;34.79;93565.75;2038270;70;20097;-72
2022/03/15 11:21:14;;;;;;;;;;;;;;;12.12;34.98;93564.72;2037846;70;20096;-72
2022/03/15 11:23:42;;;;;;;;;;;;;;;11.86;35.19;93572.84;2037582;70;20425;-73
2022/03/15 11:26:09;;;;;;;;;;;;;;;11.94;34.43;93567.03;2038070;70;20071;-74
2022/03/15 11:28:38;;;;;;;;;;;;;;;12.00;34.39;93570.25;2037864;70;20115;-73
2022/03/15 11:31:04;;;;;;;;;;;;;;;11.88;34.38;93556.06;2037511;70;20046;-73
2022/03/15 11:33:31;;;;;;;;;;;;;;;11.82;34.89;93563.31;2037658;70;20155;-73
2022/03/15 11:36:00;;;;;;;;;;;;;;;11.59;35.40;93567.41;2037640;70;20054;-73
2022/03/15 11:38:26;;;;;;;;;;;;;;;11.89;34.37;93554.72;2037628;70;20048;-73
2022/03/15 11:40:54;;;;;;;;;;;;;;;11.78;35.65;93552.50;2038053;70;20140;-73
2022/03/15 11:43:35;;;;;;;;;;;;;;;11.90;34.64;93547.72;2037798;70;20060;-74
2022/03/15 11:46:11;;;;;;;;;;;;;;;11.38;37.60;93545.50;2037341;70;20505;-73
2022/03/15 11:48:55;;;;;;;;;;;;;;;11.66;35.98;93546.00;2038199;70;20051;-73
2022/03/15 11:51:40;;;;;;;;;;;;;;;11.86;35.46;93533.34;2037107;70;20068;-73
2022/03/15 11:54:10;;;;;;;;;;;;;;;11.98;35.14;93524.97;2037748;70;20427;-74
2022/03/15 11:56:43;;;;;;;;;;;;;;;11.60;36.62;93523.78;2037716;70;20055;-73
2022/03/15 11:59:09;;;;;;;;;;;;;;;11.40;36.77;93537.16;2037525;70;20048;-73
2022/03/15 12:01:49;;;;;;;;;;;;;;;11.80;36.44;93532.91;2037455;70;20500;-72
2022/03/15 12:04:15;;;;;;;;;;;;;;;10.86;39.74;93543.19;2037319;70;20064;-74
2022/03/15 12:06:54;;;;;;;;;;;;;;;11.08;39.44;93544.03;2037215;70;20151;-73
2022/03/15 12:09:23;;;;;;;;;;;;;;;11.55;36.80;93536.09;2037812;70;20058;-72
2022/03/15 12:12:00;;;;;;;;;;;;;;;11.07;40.68;93536.19;2039929;70;20110;-73
2022/03/15 12:14:31;;;;;;;;;;;;;;;11.31;38.15;93531.53;2037380;70;20044;-74
2022/03/15 12:17:01;;;;;;;;;;;;;;;11.47;38.49;93526.34;2039820;70;20040;-73
2022/03/15 12:21:59;;;;;;;;;;;;;;;11.58;38.15;93517.22;2039574;70;20182;-74
2022/03/15 12:24:30;;;;;;;;;;;;;;;11.70;36.12;93507.53;2038390;70;20114;-75
2022/03/15 12:27:01;;;;;;;;;;;;;;;11.76;36.68;93498.75;2037334;70;20052;-77
2022/03/15 12:29:27;;;;;;;;;;;;;;;11.79;36.46;93491.19;2039810;70;20078;-76
2022/03/15 12:31:53;;;;;;;;;;;;;;;11.86;36.97;93493.84;2040501;70;20435;-76
2022/03/15 12:34:19;;;;;;;;;;;;;;;11.57;38.58;93502.41;2040737;70;20079;-76
2022/03/15 12:36:51;;;;;;;;;;;;;;;11.42;38.10;93505.56;2040816;70;20544;-76
2022/03/15 12:39:21;;;;;;;;;;;;;;;11.78;36.75;93498.91;2040759;70;20056;-74
2022/03/15 12:41:47;;;;;;;;;;;;;;;11.69;38.24;93499.69;2040819;70;20058;-74
2022/03/15 12:44:14;;;;;;;;;;;;;;;11.31;39.65;93490.00;2040977;70;20055;-76
2022/03/15 12:46:41;;;;;;;;;;;;;;;11.18;40.05;93491.25;2040617;70;20055;-76
2022/03/15 12:49:08;;;;;;;;;;;;;;;11.59;38.37;93477.16;2041299;70;20059;-77
2022/03/15 12:51:43;;;;;;;;;;;;;;;11.80;37.76;93478.56;2041333;70;20058;-75
2022/03/15 12:54:12;;;;;;;;;;;;;;;11.93;36.42;93472.44;2041246;70;20103;-74